sensor_id;sensor_type;location;lat;lon;timestamp;pressure;altitude;pressure_sealevel;temperature;humidity
45255;BME280;30989;52.078;21.014;2023-05-21T00:00:35;167326.16;;;13.60;99.16
45255;BME280;30989;52.078;21.014;2023-05-21T00:03:01;167316.75;;;13.56;99.15
45255;BME280;30989;52.078;21.014;2023-05-21T00:05:26;167293.94;;;13.47;99.57
45255;BME280;30989;52.078;21.014;2023-05-21T00:07:51;167303.34;;;13.51;99.67
45255;BME280;30989;52.078;21.014;2023-05-21T00:10:19;167291.25;;;13.46;99.68
45255;BME280;30989;52.078;21.014;2023-05-21T00:12:45;167279.19;;;13.42;99.73
45255;BME280;30989;52.078;21.014;2023-05-21T00:15:10;167264.44;;;13.36;99.70
45255;BME280;30989;52.078;21.014;2023-05-21T00:17:36;167253.69;;;13.32;100.00
45255;BME280;30989;52.078;21.014;2023-05-21T00:20:04;167257.72;;;13.34;100.00
45255;BME280;30989;52.078;21.014;2023-05-21T00:22:31;167228.22;;;13.22;100.00
45255;BME280;30989;52.078;21.014;2023-05-21T00:24:58;167229.56;;;13.23;100.00
45255;BME280;30989;52.078;21.014;2023-05-21T00:27:23;167230.91;;;13.23;100.00
45255;BME280;30989;52.078;21.014;2023-05-21T00:29:49;167213.44;;;13.17;100.00
45255;BME280;30989;52.078;21.014;2023-05-21T00:32:14;167205.34;;;13.14;100.00
45255;BME280;30989;52.078;21.014;2023-05-21T00:34:40;167205.34;;;13.14;100.00
45255;BME280;30989;52.078;21.014;2023-05-21T00:37:05;167193.28;;;13.09;100.00
45255;BME280;30989;52.078;21.014;2023-05-21T00:39:34;167194.63;;;13.10;100.00
45255;BME280;30989;52.078;21.014;2023-05-21T00:41:59;167191.94;;;13.09;100.00
45255;BME280;30989;52.078;21.014;2023-05-21T00:44:25;167193.28;;;13.09;100.00
45255;BME280;30989;52.078;21.014;2023-05-21T00:46:51;167181.22;;;13.05;100.00
45255;BME280;30989;52.078;21.014;2023-05-21T00:49:21;167186.56;;;13.07;100.00
45255;BME280;30989;52.078;21.014;2023-05-21T00:51:48;167177.19;;;13.03;100.00
45255;BME280;30989;52.078;21.014;2023-05-21T00:54:14;167174.50;;;13.02;100.00
45255;BME280;30989;52.078;21.014;2023-05-21T00:56:40;167166.44;;;12.99;100.00
45255;BME280;30989;52.078;21.014;2023-05-21T00:59:06;167145.00;;;12.91;100.00
45255;BME280;30989;52.078;21.014;2023-05-21T01:01:31;167145.00;;;12.91;100.00
45255;BME280;30989;52.078;21.014;2023-05-21T01:04:01;167140.97;;;12.89;100.00
45255;BME280;30989;52.078;21.014;2023-05-21T01:06:27;167131.56;;;12.86;100.00
45255;BME280;30989;52.078;21.014;2023-05-21T01:08:59;167118.16;;;12.81;100.00
45255;BME280;30989;52.078;21.014;2023-05-21T01:11:36;167115.47;;;12.80;100.00
45255;BME280;30989;52.078;21.014;2023-05-21T01:14:02;167108.78;;;12.77;100.00
45255;BME280;30989;52.078;21.014;2023-05-21T01:16:28;167094.03;;;12.72;100.00
45255;BME280;30989;52.078;21.014;2023-05-21T01:18:53;167094.03;;;12.72;100.00
45255;BME280;30989;52.078;21.014;2023-05-21T01:21:23;167072.56;;;12.64;100.00
45255;BME280;30989;52.078;21.014;2023-05-21T01:23:49;167075.25;;;12.65;100.00
45255;BME280;30989;52.078;21.014;2023-05-21T01:26:14;167067.19;;;12.62;100.00
45255;BME280;30989;52.078;21.014;2023-05-21T01:28:40;167048.44;;;12.54;100.00
45255;BME280;30989;52.078;21.014;2023-05-21T01:31:16;167047.09;;;12.54;100.00
45255;BME280;30989;52.078;21.014;2023-05-21T01:33:47;167032.34;;;12.48;100.00
45255;BME280;30989;52.078;21.014;2023-05-21T01:36:17;167016.25;;;12.42;100.00
45255;BME280;30989;52.078;21.014;2023-05-21T01:39:08;167009.53;;;12.40;100.00
45255;BME280;30989;52.078;21.014;2023-05-21T01:41:41;166997.47;;;12.35;100.00
45255;BME280;30989;52.078;21.014;2023-05-21T01:44:08;166973.34;;;12.26;100.00
45255;BME280;30989;52.078;21.014;2023-05-21T01:46:35;166986.75;;;12.31;100.00
45255;BME280;30989;52.078;21.014;2023-05-21T01:49:04;166973.34;;;12.26;100.00
45255;BME280;30989;52.078;21.014;2023-05-21T01:51:29;166957.25;;;12.20;100.00
45255;BME280;30989;52.078;21.014;2023-05-21T01:53:55;166954.56;;;12.19;100.00
45255;BME280;30989;52.078;21.014;2023-05-21T01:56:20;166941.16;;;12.14;100.00
45255;BME280;30989;52.078;21.014;2023-05-21T01:58:50;166945.19;;;12.15;100.00
45255;BME280;30989;52.078;21.014;2023-05-21T02:01:16;166938.50;;;12.13;100.00
45255;BME280;30989;52.078;21.014;2023-05-21T02:03:42;166927.75;;;12.09;100.00
45255;BME280;30989;52.078;21.014;2023-05-21T02:06:07;166926.41;;;12.08;100.00
45255;BME280;30989;52.078;21.014;2023-05-21T02:08:32;166911.69;;;12.03;100.00
45255;BME280;30989;52.078;21.014;2023-05-21T02:10:58;166895.59;;;11.97;100.00
45255;BME280;30989;52.078;21.014;2023-05-21T02:13:23;166900.94;;;11.99;100.00
45255;BME280;30989;52.078;21.014;2023-05-21T02:15:49;166896.94;;;11.97;100.00
45255;BME280;30989;52.078;21.014;2023-05-21T02:18:16;166876.81;;;11.89;100.00
45255;BME280;30989;52.078;21.014;2023-05-21T02:20:42;166883.53;;;11.92;100.00
45255;BME280;30989;52.078;21.014;2023-05-21T02:23:08;166879.50;;;11.90;100.00
45255;BME280;30989;52.078;21.014;2023-05-21T02:25:34;166875.47;;;11.89;100.00
45255;BME280;30989;52.078;21.014;2023-05-21T02:27:59;166864.75;;;11.85;100.00
45255;BME280;30989;52.078;21.014;2023-05-21T02:30:26;166860.72;;;11.83;100.00
45255;BME280;30989;52.078;21.014;2023-05-21T02:32:52;166854.03;;;11.81;100.00
45255;BME280;30989;52.078;21.014;2023-05-21T02:35:17;166860.72;;;11.83;100.00
45255;BME280;30989;52.078;21.014;2023-05-21T02:37:43;166850.00;;;11.79;100.00
45255;BME280;30989;52.078;21.014;2023-05-21T02:40:09;166836.56;;;11.74;100.00
45255;BME280;30989;52.078;21.014;2023-05-21T02:42:37;166839.25;;;11.75;100.00
45255;BME280;30989;52.078;21.014;2023-05-21T02:45:08;166817.78;;;11.67;100.00
45255;BME280;30989;52.078;21.014;2023-05-21T02:47:35;166824.50;;;11.70;100.00
45255;BME280;30989;52.078;21.014;2023-05-21T02:50:04;166829.84;;;11.72;100.00
45255;BME280;30989;52.078;21.014;2023-05-21T02:52:30;166827.19;;;11.71;100.00
45255;BME280;30989;52.078;21.014;2023-05-21T02:54:55;166813.78;;;11.66;100.00
45255;BME280;30989;52.078;21.014;2023-05-21T02:57:21;166817.78;;;11.67;100.00
45255;BME280;30989;52.078;21.014;2023-05-21T02:59:47;166812.44;;;11.65;100.00
45255;BME280;30989;52.078;21.014;2023-05-21T03:02:12;166804.38;;;11.62;100.00
45255;BME280;30989;52.078;21.014;2023-05-21T03:04:38;166815.13;;;11.66;100.00
45255;BME280;30989;52.078;21.014;2023-05-21T03:07:14;166811.09;;;11.65;100.00
45255;BME280;30989;52.078;21.014;2023-05-21T03:09:42;166812.44;;;11.65;100.00
45255;BME280;30989;52.078;21.014;2023-05-21T03:12:09;166813.78;;;11.66;100.00
45255;BME280;30989;52.078;21.014;2023-05-21T03:14:34;166816.44;;;11.67;100.00
45255;BME280;30989;52.078;21.014;2023-05-21T03:17:00;166821.81;;;11.69;100.00
45255;BME280;30989;52.078;21.014;2023-05-21T03:19:31;166812.44;;;11.65;100.00
45255;BME280;30989;52.078;21.014;2023-05-21T03:22:03;166831.19;;;11.72;100.00
45255;BME280;30989;52.078;21.014;2023-05-21T03:24:31;166825.84;;;11.70;100.00
45255;BME280;30989;52.078;21.014;2023-05-21T03:26:58;166829.84;;;11.72;100.00
45255;BME280;30989;52.078;21.014;2023-05-21T03:29:26;166817.78;;;11.67;100.00
45255;BME280;30989;52.078;21.014;2023-05-21T03:31:52;166823.16;;;11.69;100.00
45255;BME280;30989;52.078;21.014;2023-05-21T03:34:20;166841.91;;;11.76;100.00
45255;BME280;30989;52.078;21.014;2023-05-21T03:36:46;166847.34;;;11.78;100.00
45255;BME280;30989;52.078;21.014;2023-05-21T03:39:13;166847.34;;;11.78;100.00
45255;BME280;30989;52.078;21.014;2023-05-21T03:41:39;166862.06;;;11.84;100.00
45255;BME280;30989;52.078;21.014;2023-05-21T03:44:08;166871.47;;;11.87;100.00
45255;BME280;30989;52.078;21.014;2023-05-21T03:46:45;166878.16;;;11.90;100.00
45255;BME280;30989;52.078;21.014;2023-05-21T03:49:22;166895.59;;;11.97;100.00
45255;BME280;30989;52.078;21.014;2023-05-21T03:51:50;166902.28;;;11.99;100.00
45255;BME280;30989;52.078;21.014;2023-05-21T03:54:18;166914.34;;;12.04;100.00
45255;BME280;30989;52.078;21.014;2023-05-21T03:56:44;166925.06;;;12.08;100.00
45255;BME280;30989;52.078;21.014;2023-05-21T03:59:10;166943.84;;;12.15;100.00
45255;BME280;30989;52.078;21.014;2023-05-21T04:01:36;166954.56;;;12.19;100.00
45255;BME280;30989;52.078;21.014;2023-05-21T04:04:04;166981.38;;;12.29;100.00
45255;BME280;30989;52.078;21.014;2023-05-21T04:06:30;166997.47;;;12.35;100.00
45255;BME280;30989;52.078;21.014;2023-05-21T04:08:56;167022.94;;;12.45;100.00
45255;BME280;30989;52.078;21.014;2023-05-21T04:11:21;167040.38;;;12.51;100.00
45255;BME280;30989;52.078;21.014;2023-05-21T04:13:47;167029.66;;;12.47;100.00
45255;BME280;30989;52.078;21.014;2023-05-21T04:16:13;167067.19;;;12.62;100.00
45255;BME280;30989;52.078;21.014;2023-05-21T04:18:40;167091.34;;;12.71;100.00
45255;BME280;30989;52.078;21.014;2023-05-21T04:21:08;167100.72;;;12.74;100.00
45255;BME280;30989;52.078;21.014;2023-05-21T04:23:34;167122.19;;;12.82;100.00
45255;BME280;30989;52.078;21.014;2023-05-21T04:26:04;167145.00;;;12.91;99.32
45255;BME280;30989;52.078;21.014;2023-05-21T04:28:30;167165.13;;;12.99;99.15
45255;BME280;30989;52.078;21.014;2023-05-21T04:30:56;167182.53;;;13.05;98.76
45255;BME280;30989;52.078;21.014;2023-05-21T04:33:22;167213.44;;;13.17;98.63
45255;BME280;30989;52.078;21.014;2023-05-21T04:35:51;167230.91;;;13.23;97.85
45255;BME280;30989;52.078;21.014;2023-05-21T04:38:17;167265.78;;;13.37;97.44
45255;BME280;30989;52.078;21.014;2023-05-21T04:40:48;167268.47;;;13.38;96.05
45255;BME280;30989;52.078;21.014;2023-05-21T04:43:18;167283.22;;;13.43;96.77
45255;BME280;30989;52.078;21.014;2023-05-21T04:45:50;167300.66;;;13.50;95.95
45255;BME280;30989;52.078;21.014;2023-05-21T04:48:17;167303.34;;;13.51;94.28
45255;BME280;30989;52.078;21.014;2023-05-21T04:50:43;167314.06;;;13.55;94.15
45255;BME280;30989;52.078;21.014;2023-05-21T04:53:08;167331.53;;;13.62;93.38
45255;BME280;30989;52.078;21.014;2023-05-21T04:55:34;167346.28;;;13.67;94.16
45255;BME280;30989;52.078;21.014;2023-05-21T04:58:07;167361.03;;;13.73;92.60
45255;BME280;30989;52.078;21.014;2023-05-21T05:00:36;167375.81;;;13.78;93.89
45255;BME280;30989;52.078;21.014;2023-05-21T05:03:03;167412.03;;;13.92;93.65
45255;BME280;30989;52.078;21.014;2023-05-21T05:05:29;167430.81;;;13.99;93.57
45255;BME280;30989;52.078;21.014;2023-05-21T05:07:54;167459.00;;;14.10;93.48
45255;BME280;30989;52.078;21.014;2023-05-21T05:10:21;167485.84;;;14.20;92.98
45255;BME280;30989;52.078;21.014;2023-05-21T05:12:47;167526.13;;;14.35;92.43
45255;BME280;30989;52.078;21.014;2023-05-21T05:15:13;167555.72;;;14.46;91.84
45255;BME280;30989;52.078;21.014;2023-05-21T05:17:38;167567.81;;;14.51;91.74
45255;BME280;30989;52.078;21.014;2023-05-21T05:20:08;167604.06;;;14.65;91.09
45255;BME280;30989;52.078;21.014;2023-05-21T05:22:34;167632.25;;;14.75;90.79
45255;BME280;30989;52.078;21.014;2023-05-21T05:25:00;167661.78;;;14.87;89.93
45255;BME280;30989;52.078;21.014;2023-05-21T05:27:25;167681.94;;;14.94;88.03
45255;BME280;30989;52.078;21.014;2023-05-21T05:29:51;167704.75;;;15.03;87.39
45255;BME280;30989;52.078;21.014;2023-05-21T05:32:16;167719.53;;;15.08;85.28
45255;BME280;30989;52.078;21.014;2023-05-21T05:34:44;167735.66;;;15.14;86.04
45255;BME280;30989;52.078;21.014;2023-05-21T05:37:09;167759.81;;;15.24;86.67
45255;BME280;30989;52.078;21.014;2023-05-21T05:39:35;167786.69;;;15.34;85.79
45255;BME280;30989;52.078;21.014;2023-05-21T05:42:00;167822.97;;;15.47;85.77
45255;BME280;30989;52.078;21.014;2023-05-21T05:44:26;167852.56;;;15.59;85.37
45255;BME280;30989;52.078;21.014;2023-05-21T05:46:51;167890.22;;;15.73;82.37
45255;BME280;30989;52.078;21.014;2023-05-21T05:49:17;167899.63;;;15.76;82.97
45255;BME280;30989;52.078;21.014;2023-05-21T05:51:42;167939.94;;;15.92;80.82
45255;BME280;30989;52.078;21.014;2023-05-21T05:54:09;167960.09;;;15.99;80.81
45255;BME280;30989;52.078;21.014;2023-05-21T05:56:34;167988.31;;;16.10;82.20
45255;BME280;30989;52.078;21.014;2023-05-21T05:59:02;168025.94;;;16.24;81.15
45255;BME280;30989;52.078;21.014;2023-05-21T06:01:29;168051.47;;;16.34;81.08
45255;BME280;30989;52.078;21.014;2023-05-21T06:03:56;168073.00;;;16.42;80.19
45255;BME280;30989;52.078;21.014;2023-05-21T06:06:21;168102.56;;;16.53;79.22
45255;BME280;30989;52.078;21.014;2023-05-21T06:08:47;168132.13;;;16.64;79.46
45255;BME280;30989;52.078;21.014;2023-05-21T06:11:12;168151.00;;;16.71;78.62
45255;BME280;30989;52.078;21.014;2023-05-21T06:13:42;168184.59;;;16.84;79.01
45255;BME280;30989;52.078;21.014;2023-05-21T06:16:08;168222.25;;;16.98;78.88
45255;BME280;30989;52.078;21.014;2023-05-21T06:18:34;168261.25;;;17.13;78.47
45255;BME280;30989;52.078;21.014;2023-05-21T06:21:00;168290.81;;;17.24;77.78
45255;BME280;30989;52.078;21.014;2023-05-21T06:23:26;168320.41;;;17.35;78.05
45255;BME280;30989;52.078;21.014;2023-05-21T06:25:52;168351.34;;;17.47;76.50
45255;BME280;30989;52.078;21.014;2023-05-21T06:28:18;168375.56;;;17.56;76.20
45255;BME280;30989;52.078;21.014;2023-05-21T06:30:44;168401.16;;;17.66;75.31
45255;BME280;30989;52.078;21.014;2023-05-21T06:33:09;168411.91;;;17.70;68.83
45255;BME280;30989;52.078;21.014;2023-05-21T06:35:35;168415.94;;;17.71;72.82
45255;BME280;30989;52.078;21.014;2023-05-21T06:38:01;168434.78;;;17.79;73.11
45255;BME280;30989;52.078;21.014;2023-05-21T06:40:27;168457.66;;;17.87;72.38
45255;BME280;30989;52.078;21.014;2023-05-21T06:42:55;168485.91;;;17.98;71.93
45255;BME280;30989;52.078;21.014;2023-05-21T06:45:55;168520.88;;;18.11;70.99
45255;BME280;30989;52.078;21.014;2023-05-21T06:48:50;168561.25;;;18.26;70.37
45255;BME280;30989;52.078;21.014;2023-05-21T06:51:16;168585.44;;;18.35;69.94
45255;BME280;30989;52.078;21.014;2023-05-21T06:53:41;168620.44;;;18.49;69.99
45255;BME280;30989;52.078;21.014;2023-05-21T06:56:07;168652.78;;;18.61;69.91
45255;BME280;30989;52.078;21.014;2023-05-21T06:58:40;168690.47;;;18.75;69.27
45255;BME280;30989;52.078;21.014;2023-05-21T07:01:06;168683.75;;;18.73;65.93
45255;BME280;30989;52.078;21.014;2023-05-21T07:03:31;168690.47;;;18.75;67.35
45255;BME280;30989;52.078;21.014;2023-05-21T07:05:57;168687.78;;;18.74;65.94
45255;BME280;30989;52.078;21.014;2023-05-21T07:08:22;168683.75;;;18.73;65.69
45255;BME280;30989;52.078;21.014;2023-05-21T07:10:49;168710.66;;;18.83;67.10
45255;BME280;30989;52.078;21.014;2023-05-21T07:13:15;168729.50;;;18.90;67.08
45255;BME280;30989;52.078;21.014;2023-05-21T07:15:41;168769.88;;;19.05;67.53
45255;BME280;30989;52.078;21.014;2023-05-21T07:18:06;168798.16;;;19.16;64.10
45255;BME280;30989;52.078;21.014;2023-05-21T07:20:32;168803.53;;;19.18;65.22
45255;BME280;30989;52.078;21.014;2023-05-21T07:23:00;168827.75;;;19.27;64.53
45255;BME280;30989;52.078;21.014;2023-05-21T07:25:26;168831.78;;;19.28;64.32
45255;BME280;30989;52.078;21.014;2023-05-21T07:27:52;168856.03;;;19.38;64.23
45255;BME280;30989;52.078;21.014;2023-05-21T07:30:18;168881.63;;;19.47;64.85
45255;BME280;30989;52.078;21.014;2023-05-21T07:32:45;168919.34;;;19.61;63.92
45255;BME280;30989;52.078;21.014;2023-05-21T07:35:10;168946.28;;;19.72;62.89
45255;BME280;30989;52.078;21.014;2023-05-21T07:37:35;168959.75;;;19.77;61.56
45255;BME280;30989;52.078;21.014;2023-05-21T07:40:02;168971.88;;;19.81;61.74
45255;BME280;30989;52.078;21.014;2023-05-21T07:42:29;168978.59;;;19.84;62.73
45255;BME280;30989;52.078;21.014;2023-05-21T07:44:55;169013.63;;;19.97;62.24
45255;BME280;30989;52.078;21.014;2023-05-21T07:47:22;169027.09;;;20.02;61.39
45255;BME280;30989;52.078;21.014;2023-05-21T07:49:49;169039.22;;;20.07;60.02
45255;BME280;30989;52.078;21.014;2023-05-21T07:52:14;169064.78;;;20.16;61.47
45255;BME280;30989;52.078;21.014;2023-05-21T07:54:40;169089.03;;;20.25;57.87
45255;BME280;30989;52.078;21.014;2023-05-21T07:57:06;169080.97;;;20.22;58.40
45255;BME280;30989;52.078;21.014;2023-05-21T07:59:49;169093.06;;;20.27;57.83
45255;BME280;30989;52.078;21.014;2023-05-21T08:02:15;169109.25;;;20.33;56.90
45255;BME280;30989;52.078;21.014;2023-05-21T08:04:41;169142.97;;;20.46;57.26
45255;BME280;30989;52.078;21.014;2023-05-21T08:07:07;169151.06;;;20.49;55.90
45255;BME280;30989;52.078;21.014;2023-05-21T08:09:33;169145.66;;;20.47;55.39
45255;BME280;30989;52.078;21.014;2023-05-21T08:11:59;169157.78;;;20.51;56.10
45255;BME280;30989;52.078;21.014;2023-05-21T08:14:24;169178.00;;;20.59;51.72
45255;BME280;30989;52.078;21.014;2023-05-21T08:16:50;169188.78;;;20.63;55.02
45255;BME280;30989;52.078;21.014;2023-05-21T08:19:15;169235.97;;;20.81;53.67
45255;BME280;30989;52.078;21.014;2023-05-21T08:21:41;169271.00;;;20.94;55.12
45255;BME280;30989;52.078;21.014;2023-05-21T08:24:06;169320.88;;;21.13;55.06
45255;BME280;30989;52.078;21.014;2023-05-21T08:26:32;169341.06;;;21.20;52.26
45255;BME280;30989;52.078;21.014;2023-05-21T08:28:58;169315.47;;;21.11;51.15
45255;BME280;30989;52.078;21.014;2023-05-21T08:31:23;169277.75;;;20.97;50.87
45255;BME280;30989;52.078;21.014;2023-05-21T08:33:51;169260.22;;;20.90;52.02
45255;BME280;30989;52.078;21.014;2023-05-21T08:36:19;169273.69;;;20.95;53.52
45255;BME280;30989;52.078;21.014;2023-05-21T08:38:51;169281.78;;;20.98;51.28
45255;BME280;30989;52.078;21.014;2023-05-21T08:41:34;169322.22;;;21.13;51.33
45255;BME280;30989;52.078;21.014;2023-05-21T08:44:01;169361.34;;;21.28;52.78
45255;BME280;30989;52.078;21.014;2023-05-21T08:46:31;169403.13;;;21.44;52.18
45255;BME280;30989;52.078;21.014;2023-05-21T08:49:00;169435.47;;;21.56;50.46
45255;BME280;30989;52.078;21.014;2023-05-21T08:51:28;169466.47;;;21.68;50.96
45255;BME280;30989;52.078;21.014;2023-05-21T08:53:55;169509.59;;;21.84;49.12
45255;BME280;30989;52.078;21.014;2023-05-21T08:56:22;169547.34;;;21.98;49.78
45255;BME280;30989;52.078;21.014;2023-05-21T08:58:52;169543.31;;;21.97;47.63
45255;BME280;30989;52.078;21.014;2023-05-21T09:01:21;169551.38;;;22.00;47.37
45255;BME280;30989;52.078;21.014;2023-05-21T09:03:58;169535.22;;;21.94;47.77
45255;BME280;30989;52.078;21.014;2023-05-21T09:06:25;169559.53;;;22.03;45.88
45255;BME280;30989;52.078;21.014;2023-05-21T09:09:03;169582.44;;;22.11;47.20
45255;BME280;30989;52.078;21.014;2023-05-21T09:11:38;169597.28;;;22.17;45.70
45255;BME280;30989;52.078;21.014;2023-05-21T09:14:06;169598.63;;;22.17;47.04
45255;BME280;30989;52.078;21.014;2023-05-21T09:16:52;169614.81;;;22.24;47.00
45255;BME280;30989;52.078;21.014;2023-05-21T09:19:21;169649.88;;;22.37;46.59
45255;BME280;30989;52.078;21.014;2023-05-21T09:21:50;169644.47;;;22.35;43.73
45255;BME280;30989;52.078;21.014;2023-05-21T09:24:20;169641.78;;;22.34;44.99
45255;BME280;30989;52.078;21.014;2023-05-21T09:26:47;169651.22;;;22.37;46.04
45255;BME280;30989;52.078;21.014;2023-05-21T09:29:13;169682.22;;;22.49;44.70
45255;BME280;30989;52.078;21.014;2023-05-21T09:31:43;169641.78;;;22.34;42.45
45255;BME280;30989;52.078;21.014;2023-05-21T09:34:10;169625.59;;;22.28;43.96
45255;BME280;30989;52.078;21.014;2023-05-21T09:36:36;169631.00;;;22.30;45.92
45255;BME280;30989;52.078;21.014;2023-05-21T09:39:03;169649.88;;;22.37;44.63
45255;BME280;30989;52.078;21.014;2023-05-21T09:41:33;169666.03;;;22.43;46.01
45255;BME280;30989;52.078;21.014;2023-05-21T09:44:00;169660.66;;;22.41;42.02
45255;BME280;30989;52.078;21.014;2023-05-21T09:46:26;169614.81;;;22.24;42.71
45255;BME280;30989;52.078;21.014;2023-05-21T09:48:52;169625.59;;;22.28;42.52
45255;BME280;30989;52.078;21.014;2023-05-21T09:51:19;169636.38;;;22.32;43.46
45255;BME280;30989;52.078;21.014;2023-05-21T09:53:53;169653.91;;;22.38;42.38
45255;BME280;30989;52.078;21.014;2023-05-21T09:56:27;169605.38;;;22.20;41.57
45255;BME280;30989;52.078;21.014;2023-05-21T09:59:00;169575.72;;;22.09;43.53
45255;BME280;30989;52.078;21.014;2023-05-21T10:01:30;169628.28;;;22.29;43.79
45255;BME280;30989;52.078;21.014;2023-05-21T10:03:57;169653.91;;;22.38;44.18
45255;BME280;30989;52.078;21.014;2023-05-21T10:06:27;169694.38;;;22.54;44.59
45255;BME280;30989;52.078;21.014;2023-05-21T10:08:55;169738.88;;;22.70;44.05
45255;BME280;30989;52.078;21.014;2023-05-21T10:11:22;169768.59;;;22.81;45.79
45255;BME280;30989;52.078;21.014;2023-05-21T10:13:54;169790.16;;;22.90;45.73
45255;BME280;30989;52.078;21.014;2023-05-21T10:16:21;169787.47;;;22.89;43.33
45255;BME280;30989;52.078;21.014;2023-05-21T10:18:48;169790.16;;;22.90;45.34
45255;BME280;30989;52.078;21.014;2023-05-21T10:21:14;169852.19;;;23.13;46.36
45255;BME280;30989;52.078;21.014;2023-05-21T10:23:41;169876.47;;;23.22;42.76
45255;BME280;30989;52.078;21.014;2023-05-21T10:26:09;169881.88;;;23.24;43.89
45255;BME280;30989;52.078;21.014;2023-05-21T10:28:36;169922.34;;;23.39;44.64
45255;BME280;30989;52.078;21.014;2023-05-21T10:31:02;169962.88;;;23.55;43.37
45255;BME280;30989;52.078;21.014;2023-05-21T10:33:28;170008.75;;;23.72;43.91
45255;BME280;30989;52.078;21.014;2023-05-21T10:35:57;170070.81;;;23.95;43.53
45255;BME280;30989;52.078;21.014;2023-05-21T10:38:23;170095.13;;;24.04;43.87
45255;BME280;30989;52.078;21.014;2023-05-21T10:40:49;170072.16;;;23.96;42.33
45255;BME280;30989;52.078;21.014;2023-05-21T10:51:22;170262.53;;;24.67;42.03
45255;BME280;30989;52.078;21.014;2023-05-21T11:02:07;170246.31;;;24.61;40.67
45255;BME280;30989;52.078;21.014;2023-05-21T11:04:34;170258.47;;;24.66;38.75
45255;BME280;30989;52.078;21.014;2023-05-21T11:07:04;170240.94;;;24.59;38.97
45255;BME280;30989;52.078;21.014;2023-05-21T11:09:30;170223.38;;;24.53;38.86
45255;BME280;30989;52.078;21.014;2023-05-21T11:11:56;170219.31;;;24.51;40.85
45255;BME280;30989;52.078;21.014;2023-05-21T11:17:14;170247.69;;;24.62;40.90
45255;BME280;30989;52.078;21.014;2023-05-21T11:19:44;170396.22;;;25.18;41.07
45255;BME280;30989;52.078;21.014;2023-05-21T11:22:25;170448.91;;;25.37;35.77
45255;BME280;30989;52.078;21.014;2023-05-21T11:24:53;170500.22;;;25.57;38.51
45255;BME280;30989;52.078;21.014;2023-05-21T11:27:38;170717.84;;;26.39;38.89
45255;BME280;30989;52.078;21.014;2023-05-21T11:30:06;170954.34;;;27.27;37.77
45255;BME280;30989;52.078;21.014;2023-05-21T11:32:38;171107.16;;;27.85;36.69
45255;BME280;30989;52.078;21.014;2023-05-21T11:35:04;171289.72;;;28.53;35.36
45255;BME280;30989;52.078;21.014;2023-05-21T11:37:31;171387.16;;;28.90;34.23
45255;BME280;30989;52.078;21.014;2023-05-21T11:40:24;171546.81;;;29.50;32.53
45255;BME280;30989;52.078;21.014;2023-05-21T11:42:53;171665.88;;;29.95;31.39
45255;BME280;30989;52.078;21.014;2023-05-21T11:45:21;171554.94;;;29.53;28.34
45255;BME280;30989;52.078;21.014;2023-05-21T11:47:47;171443.97;;;29.11;30.11
45255;BME280;30989;52.078;21.014;2023-05-21T11:50:14;171450.72;;;29.14;31.33
45255;BME280;30989;52.078;21.014;2023-05-21T11:52:41;171584.69;;;29.64;31.47
45255;BME280;30989;52.078;21.014;2023-05-21T11:55:07;171783.66;;;30.39;30.65
45255;BME280;30989;52.078;21.014;2023-05-21T11:57:33;171939.38;;;30.97;30.97
45255;BME280;30989;52.078;21.014;2023-05-21T12:00:00;172154.78;;;31.78;30.08
45255;BME280;30989;52.078;21.014;2023-05-21T12:02:29;172143.97;;;31.74;28.37
45255;BME280;30989;52.078;21.014;2023-05-21T12:04:55;172157.50;;;31.79;28.75
45255;BME280;30989;52.078;21.014;2023-05-21T12:07:26;172280.78;;;32.25;29.15
45255;BME280;30989;52.078;21.014;2023-05-21T12:09:56;172452.88;;;32.90;28.36
45255;BME280;30989;52.078;21.014;2023-05-21T12:12:26;172555.84;;;33.28;28.61
45255;BME280;30989;52.078;21.014;2023-05-21T12:14:53;172615.50;;;33.51;28.10
45255;BME280;30989;52.078;21.014;2023-05-21T12:19:46;172787.66;;;34.15;26.82
45255;BME280;30989;52.078;21.014;2023-05-21T12:22:12;172801.22;;;34.20;27.14
45255;BME280;30989;52.078;21.014;2023-05-21T12:24:39;172782.25;;;34.13;27.15
45255;BME280;30989;52.078;21.014;2023-05-21T12:27:06;172787.66;;;34.15;28.56
45255;BME280;30989;52.078;21.014;2023-05-21T12:29:41;172820.19;;;34.27;26.39
45255;BME280;30989;52.078;21.014;2023-05-21T12:32:08;172740.22;;;33.98;27.97
45255;BME280;30989;52.078;21.014;2023-05-21T12:34:48;172738.88;;;33.97;24.71
45255;BME280;30989;52.078;21.014;2023-05-21T12:37:19;172409.47;;;32.74;25.13
45255;BME280;30989;52.078;21.014;2023-05-21T12:39:47;172145.31;;;31.75;27.05
45255;BME280;30989;52.078;21.014;2023-05-21T12:42:13;172058.63;;;31.42;27.47
45255;BME280;30989;52.078;21.014;2023-05-21T12:44:45;172047.78;;;31.38;27.54
45255;BME280;30989;52.078;21.014;2023-05-21T12:47:12;171919.06;;;30.90;27.43
45255;BME280;30989;52.078;21.014;2023-05-21T12:49:42;171898.75;;;30.82;27.23
45255;BME280;30989;52.078;21.014;2023-05-21T12:52:13;171965.09;;;31.07;28.66
45255;BME280;30989;52.078;21.014;2023-05-21T12:54:40;172156.16;;;31.79;29.32
45255;BME280;30989;52.078;21.014;2023-05-21T12:57:15;172203.53;;;31.96;27.65
45255;BME280;30989;52.078;21.014;2023-05-21T13:02:27;171826.97;;;30.55;26.80
45255;BME280;30989;52.078;21.014;2023-05-21T13:04:55;171465.59;;;29.19;28.16